WetterOnline ( https://www.wetteronline.de )

Wetter aktuell Hafling

Aktuelles Wetter: Reschenpass (1461m)

6-stündlich | Neueste Meldungen
Ortszeit Temperatur Wetter
Do, 24.09. 2:00 14.0° C bedeckt
Mi, 23.09. 20:00 13.8° C leichter Regen
Mi, 23.09. 14:00 15.2° C leichter Regen
Mi, 23.09. 8:00 12.4° C bedeckt
Mi, 23.09. 2:00 13.6° C leichter Regen
Di, 22.09. 20:00 13.6° C bedeckt
Di, 22.09. 14:00 14.4° C bewölkt
Di, 22.09. 8:00 13.4° C leichter Regen
Ortszeit Temperatur Wetter
Do, 24.09. 4:00 14.0° C bedeckt
Do, 24.09. 3:55 14° C bedeckt
Do, 24.09. 3:00 14.0° C bedeckt
Do, 24.09. 2:55 14° C bedeckt
Do, 24.09. 2:00 14.0° C bedeckt
Do, 24.09. 1:55 14° C bedeckt
Do, 24.09. 1:00 14.0° C bedeckt
Do, 24.09. 0:55 14° C bedeckt
Ortszeit Relative Feuchte Sichtweite
Do, 24.09. 2:00 98% 8 km
Mi, 23.09. 20:00 96% 10 km
Mi, 23.09. 14:00 67% 10 km
Mi, 23.09. 8:00 98% 5.0 km
Mi, 23.09. 2:00 100% 6 km
Di, 22.09. 20:00 95% 5.0 km
Di, 22.09. 14:00 75% 10 km
Di, 22.09. 8:00 100% 8 km
Ortszeit Relative Feuchte Sichtweite
Do, 24.09. 4:00 100% 8 km
Do, 24.09. 3:55 100% 8 km
Do, 24.09. 3:00 97% 6 km
Do, 24.09. 2:55 100% 6 km
Do, 24.09. 2:00 98% 8 km
Do, 24.09. 1:55 100% 8 km
Do, 24.09. 1:00 98% 8 km
Do, 24.09. 0:55 100% 8 km
Ortszeit Niederschlagsmenge Niederschlagsart
Do, 24.09. 2:00 0.6 l/m2 in 6 Std. Regen
Mi, 23.09. 20:00 0.9 l/m2 in 12 Std. Regen
Mi, 23.09. 14:00 0.1 l/m2 in 6 Std. Regen
Mi, 23.09. 8:00 3 l/m2 in 12 Std. -
Mi, 23.09. 2:00 2 l/m2 in 6 Std. Regen
Di, 22.09. 20:00 0.1 l/m2 in 12 Std. -
Di, 22.09. 14:00 0.1 l/m2 in 6 Std. Regen
Di, 22.09. 8:00 13 l/m2 in 12 Std. Regen
Ortszeit Niederschlagsmenge Niederschlagsart
Do, 24.09. 4:00 keine Meldung -
Do, 24.09. 3:55 keine Meldung -
Do, 24.09. 3:00 keine Meldung -
Do, 24.09. 2:55 keine Meldung -
Do, 24.09. 2:00 keine Meldung -
Do, 24.09. 1:55 keine Meldung -
Do, 24.09. 1:00 keine Meldung -
Do, 24.09. 0:55 keine Meldung -
Ortszeit Stärke Spitze Richtung
km/h Bft. km/h Grad Sektor
Do, 24.09. 2:00 4 1 - 200° S
Mi, 23.09. 20:00 6 1 - 170° S
Mi, 23.09. 14:00 6 1 - 10° N
Mi, 23.09. 8:00 4 1 - 170° S
Mi, 23.09. 2:00 6 1 - 170° S
Di, 22.09. 20:00 7 2 - 210° SW
Di, 22.09. 14:00 13 3 - 170° S
Di, 22.09. 8:00 9 2 - 170° S
Ortszeit Stärke Spitze Richtung
km/h Bft. km/h Grad Sektor
Do, 24.09. 4:00 6 1 - 180° S
Do, 24.09. 3:55 6 1 - 180° S
Do, 24.09. 3:00 4 1 - 240° SW
Do, 24.09. 2:55 4 1 - 240° SW
Do, 24.09. 2:00 4 1 - 200° S
Do, 24.09. 1:55 4 1 - 200° S
Do, 24.09. 1:00 0 0 - - -
Do, 24.09. 0:55 0 0 - - -
Ortszeit Untergrenze Bedeckung Gattung
total tief tief mittel hoch
Do, 24.09. 2:00 360 m 8/8 8/8 St - -
Mi, 23.09. 20:00 300 m 8/8 8/8 St - -
Mi, 23.09. 14:00 600 m 8/8 8/8 Cu - -
Mi, 23.09. 8:00 240 m 8/8 8/8 St - -
Mi, 23.09. 2:00 240 m 8/8 8/8 St - -
Di, 22.09. 20:00 210 m 8/8 8/8 St - -
Di, 22.09. 14:00 450 m 7/8 7/8 St - -
Di, 22.09. 8:00 450 m 8/8 8/8 St - -
Ortszeit Bedeckungsgrad in Achtel und Wolkenuntergrenze
Do, 24.09. 4:00 8(330m)
Do, 24.09. 3:55 8(330m)
Do, 24.09. 3:00 8(240m)
Do, 24.09. 2:55 8(240m)
Do, 24.09. 2:00 8(360m)
Do, 24.09. 1:55 8(360m)
Do, 24.09. 1:00 8(300m)
Do, 24.09. 0:55 8(300m)
Ortszeit Stationsdruck (hPa) Tendenz (hPa in 3 Std.)
Do, 24.09. 2:00 848 + 0,2
Mi, 23.09. 20:00 847 0,0
Mi, 23.09. 14:00 847 - 0,8
Mi, 23.09. 8:00 848 - 0,6
Mi, 23.09. 2:00 850 - 0,4
Di, 22.09. 20:00 850 - 1,0
Di, 22.09. 14:00 853 - 0,6
Di, 22.09. 8:00 853 - 0,6
Ortszeit Stationsdruck (hPa) Tendenz (hPa in 3 Std.)
Do, 24.09. 4:00 848 0,0
Do, 24.09. 3:55 - keine Meldung
Do, 24.09. 3:00 848 + 0,1
Do, 24.09. 2:55 - keine Meldung
Do, 24.09. 2:00 848 + 0,2
Do, 24.09. 1:55 - keine Meldung
Do, 24.09. 1:00 848 + 0,7
Do, 24.09. 0:55 - keine Meldung
Ortszeit Schneehöhe (cm)
Do, 24.09. 2:00 -
Mi, 23.09. 20:00 -
Mi, 23.09. 14:00 -
Mi, 23.09. 8:00 -
Mi, 23.09. 2:00 -
Di, 22.09. 20:00 -
Di, 22.09. 14:00 -
Di, 22.09. 8:00 0
Ortszeit Schneehöhe (cm)
Do, 24.09. 4:00 -
Do, 24.09. 3:55 -
Do, 24.09. 3:00 -
Do, 24.09. 2:55 -
Do, 24.09. 2:00 -
Do, 24.09. 1:55 -
Do, 24.09. 1:00 -
Do, 24.09. 0:55 -
Link zu dieser Seite / Seite empfehlen

Das Wetter in ...